Aérodrome :
LOGIN :

S'inscrire | Disclaimer

   EN    FR    IT 

 










Légende :    VFR   VFR Marginal   IFR   IFR Intensif   IFR Très Intensif
Visi : 
Plafond : 
>= 8 km
>= 3000ft
5 à 8 km
1000 à 3000 ft
1500m à 5 km
500 à 1000 ft
800 à 1500m
200 à 500 ft
< 800m
< 200 ft
Symboles :   Orages  Brouillard  Fortes neiges  Fortes précipitations  Vent > 20 kt
SIGMETs :   Divers  Orages  Givrage  Turbulence  Onde Orograph.  Cendres Volcan.







- Altitude de l'aérodrome : 13 ft
- Code IATA : OST


EBOS - Oostend bruges Int.

DERNIER METAR :
  • 211420Z 27010KT CAVOK 09/07 Q1028 NOSIG

METARs EXPIRÉS :
  • 211350Z 26010KT CAVOK 10/07 Q1028 NOSIG
  • 211320Z 25012KT 9999 FEW012 10/07 Q1028 NOSIG
  • 211250Z 27011KT 9999 FEW012 10/07 Q1028 NOSIG
  • 211220Z 25010KT 220V280 9999 FEW010 11/07 Q1028 TEMPO BKN010
  • 211150Z 24010KT 9999 FEW010 11/07 Q1027 TEMPO BKN010

TAF AMD TAF EBOS
Valide du 21 à 12h jusqu'au 22 à 18h UTC


211404Z 2112/2218 25010KT 8000 FEW020
BECMG 2114/2116 BKN007
TEMPO 2117/2218 3500 BR
PROB40
TEMPO 2203/2208 0500 FG BKN001
Pas de NOTAMs connus pour ce terrain.



MET'MAP, la Météo Aéronautique d'un coup d'oeil ! - Copyright ORBIFLY Décembre 2007 - Disclaimer

ORBIFLY MET'MAP TEAM :

Programmation & Développement : Alexandra Zaïnal
Conception & Développement : Baudouin d'Aumeries
Co-Programmation & Développement : Marc-Olivier Méhu
Soutien technique & logistique : Manuel Goepfert

Contact : metmap@orbifly.com




SOURCES & CREDITS :

   NOAA